Time;durP1;ratioP1;P1;durP2;ratioP2;P2;SDS_P1;SDS_P2;PMS_P1;PMS_P2;Temp;Humidity;BMP_temperature;BMP_pressure;BME280_temperature;BME280_humidity;BME280_pressure;Samples;Min_cycle;Max_cycle;Signal;HPM_P1;HPM_P2
2023/11/07 00:02:02;;;;;;;3.00;1.50;;;9.30;99.90;;;;;;4988888;28;20015;-59
2023/11/07 00:04:28;;;;;;;7.63;1.50;;;9.30;99.90;;;;;;4988422;28;20466;-59
2023/11/07 00:06:53;;;;;;;5.32;1.40;;;9.30;99.90;;;;;;4988667;28;20030;-59
2023/11/07 00:09:19;;;;;;;3.33;1.75;;;9.30;99.90;;;;;;4988218;28;20474;-58
2023/11/07 00:11:45;;;;;;;3.63;1.40;;;9.30;99.90;;;;;;4988641;28;20030;-59
2023/11/07 00:14:12;;;;;;;6.13;1.40;;;9.30;99.90;;;;;;4988160;28;20061;-59
2023/11/07 00:16:39;;;;;;;4.93;1.65;;;9.30;99.90;;;;;;4988189;28;20103;-59
2023/11/07 00:19:05;;;;;;;6.53;1.70;;;9.40;99.90;;;;;;5003428;28;20026;-59
2023/11/07 00:21:31;;;;;;;6.32;1.73;;;9.40;99.90;;;;;;4988470;28;20046;-59
2023/11/07 00:23:56;;;;;;;2.25;1.00;;;9.40;99.90;;;;;;4988556;28;20062;-58
2023/11/07 00:26:22;;;;;;;4.63;1.40;;;9.40;99.90;;;;;;4988290;28;20106;-59
2023/11/07 00:28:48;;;;;;;6.63;1.50;;;9.40;99.90;;;;;;4988490;28;20046;-59
2023/11/07 00:31:14;;;;;;;3.35;1.40;;;9.40;99.90;;;;;;4988305;28;20084;-59
2023/11/07 00:33:39;;;;;;;2.90;1.38;;;9.40;99.90;;;;;;4988500;28;20062;-58
2023/11/07 00:36:05;;;;;;;5.05;1.30;;;9.50;99.90;;;;;;4988389;28;20065;-59
2023/11/07 00:38:31;;;;;;;3.90;1.45;;;9.50;99.90;;;;;;4988131;28;20030;-59
2023/11/07 00:40:56;;;;;;;3.88;1.05;;;9.60;99.90;;;;;;4988292;28;20019;-59
2023/11/07 00:43:22;;;;;;;7.50;1.35;;;9.60;99.90;;;;;;4988640;28;20527;-58
2023/11/07 00:45:47;;;;;;;1.67;1.15;;;9.60;99.90;;;;;;4987844;28;20057;-58
2023/11/07 00:48:13;;;;;;;3.40;1.25;;;9.60;99.90;;;;;;4988176;28;20429;-59
2023/11/07 00:50:39;;;;;;;8.13;2.22;;;9.70;99.90;;;;;;4988285;28;20022;-59
2023/11/07 00:53:04;;;;;;;3.70;1.25;;;9.70;99.90;;;;;;4988230;28;20058;-59
2023/11/07 00:55:30;;;;;;;2.75;1.20;;;9.70;99.90;;;;;;4987866;28;20038;-59
2023/11/07 00:57:55;;;;;;;7.63;1.40;;;9.70;99.90;;;;;;4988343;28;20046;-59
2023/11/07 01:00:21;;;;;;;3.85;1.15;;;9.70;99.90;;;;;;5003485;28;20026;-59
2023/11/07 01:02:47;;;;;;;6.85;1.58;;;9.70;99.90;;;;;;5003149;28;20019;-59
2023/11/07 01:05:13;;;;;;;3.35;1.20;;;9.70;99.90;;;;;;5004768;28;20485;-59
2023/11/07 01:07:39;;;;;;;4.93;2.35;;;9.70;99.90;;;;;;5007455;28;20049;-60
2023/11/07 01:10:06;;;;;;;7.15;1.50;;;9.70;99.90;;;;;;5007812;28;20014;-60
2023/11/07 01:12:32;;;;;;;2.67;1.30;;;9.60;99.90;;;;;;5007694;28;20557;-59
2023/11/07 01:14:57;;;;;;;8.50;1.73;;;9.70;99.90;;;;;;5007222;28;20059;-60
2023/11/07 01:17:23;;;;;;;7.22;1.48;;;9.60;99.90;;;;;;5007575;28;20022;-60
2023/11/07 01:19:49;;;;;;;7.38;1.50;;;9.60;99.90;;;;;;5006300;28;20022;-60
2023/11/07 01:22:15;;;;;;;6.10;1.88;;;9.60;99.90;;;;;;4993437;28;20018;-60
2023/11/07 01:24:40;;;;;;;4.18;1.98;;;9.70;99.90;;;;;;4996123;28;20037;-60
2023/11/07 01:27:06;;;;;;;6.57;1.83;;;9.60;99.90;;;;;;5007542;28;20092;-61
2023/11/07 01:29:32;;;;;;;4.78;2.17;;;9.60;99.90;;;;;;5011250;28;20029;-60
2023/11/07 01:31:57;;;;;;;10.73;1.98;;;9.60;99.90;;;;;;5011149;28;20022;-60
2023/11/07 01:34:23;;;;;;;5.00;1.70;;;9.60;99.90;;;;;;5010500;28;20103;-60
2023/11/07 01:36:48;;;;;;;6.68;2.03;;;9.60;99.90;;;;;;5011342;28;20502;-60
2023/11/07 01:39:14;;;;;;;4.60;1.88;;;9.60;99.90;;;;;;5011377;28;20025;-60
2023/11/07 01:41:39;;;;;;;6.63;1.95;;;9.60;99.90;;;;;;5011464;28;20033;-60
2023/11/07 01:44:05;;;;;;;8.80;2.00;;;9.50;99.90;;;;;;5011486;28;20026;-60
2023/11/07 01:46:31;;;;;;;6.63;1.85;;;9.40;99.90;;;;;;5011204;28;20057;-60
2023/11/07 01:48:57;;;;;;;9.25;2.20;;;9.50;99.90;;;;;;5011354;28;20107;-61
2023/11/07 01:51:24;;;;;;;7.43;2.20;;;9.40;99.90;;;;;;5010801;28;20069;-61
2023/11/07 01:53:52;;;;;;;6.93;2.13;;;9.40;99.90;;;;;;5010886;28;20034;-60
2023/11/07 01:56:18;;;;;;;9.85;2.13;;;9.40;99.90;;;;;;5010484;28;20037;-60
2023/11/07 01:58:44;;;;;;;7.38;2.20;;;9.40;99.90;;;;;;5011309;28;20034;-60
2023/11/07 02:01:10;;;;;;;7.18;2.83;;;9.40;99.90;;;;;;5010979;28;20026;-60
2023/11/07 02:03:37;;;;;;;4.93;2.20;;;9.50;99.90;;;;;;5010499;28;20050;-61
2023/11/07 02:06:04;;;;;;;4.53;2.00;;;9.50;99.90;;;;;;5010083;28;20033;-61
2023/11/07 02:08:31;;;;;;;10.48;2.30;;;9.50;99.90;;;;;;5009000;28;20469;-60
2023/11/07 02:10:56;;;;;;;6.25;2.25;;;9.50;99.90;;;;;;5010730;28;20495;-61
2023/11/07 02:13:22;;;;;;;3.05;1.70;;;9.60;99.90;;;;;;5010497;28;20030;-61
2023/11/07 02:15:47;;;;;;;7.80;2.80;;;9.60;99.90;;;;;;5005818;28;20034;-60
2023/11/07 02:18:13;;;;;;;4.40;1.88;;;9.60;99.90;;;;;;5006832;28;20482;-60
2023/11/07 02:20:39;;;;;;;2.38;1.50;;;9.60;99.90;;;;;;5010722;28;20080;-60
2023/11/07 02:23:32;;;;;;;4.18;1.92;;;9.70;99.90;;;;;;5010956;28;20426;-61
2023/11/07 02:25:58;;;;;;;8.20;1.90;;;9.60;99.90;;;;;;5009733;28;20449;-60
2023/11/07 02:28:24;;;;;;;3.60;1.60;;;9.70;99.90;;;;;;5010086;28;20235;-61
2023/11/07 02:30:50;;;;;;;3.55;1.83;;;9.70;99.90;;;;;;5010357;28;20032;-60
2023/11/07 02:33:15;;;;;;;7.28;2.00;;;9.70;99.90;;;;;;5010293;28;20096;-60
2023/11/07 02:35:41;;;;;;;5.35;1.70;;;9.70;99.90;;;;;;5009461;28;20026;-61
2023/11/07 02:38:07;;;;;;;3.15;1.80;;;9.60;99.90;;;;;;4994044;28;20341;-61
2023/11/07 02:40:33;;;;;;;2.78;1.80;;;9.70;99.90;;;;;;5008630;28;20109;-61
2023/11/07 02:43:04;;;;;;;7.05;1.77;;;9.70;99.90;;;;;;5010003;28;20022;-61
2023/11/07 02:45:30;;;;;;;3.08;1.75;;;9.70;99.90;;;;;;5009137;28;20145;-61
2023/11/07 02:47:56;;;;;;;3.67;2.17;;;9.70;99.90;;;;;;5009629;28;20026;-61
2023/11/07 02:50:22;;;;;;;6.13;1.73;;;9.70;99.90;;;;;;5009835;28;20438;-60
2023/11/07 02:52:48;;;;;;;5.25;1.98;;;9.70;99.90;;;;;;5010076;28;20072;-61
2023/11/07 02:55:14;;;;;;;8.18;1.80;;;9.60;99.90;;;;;;5009177;28;20022;-62
2023/11/07 02:57:39;;;;;;;5.40;1.77;;;9.70;99.90;;;;;;5008835;28;20522;-61
2023/11/07 03:00:09;;;;;;;4.70;1.60;;;9.60;99.90;;;;;;5009427;28;20364;-61
2023/11/07 03:02:38;;;;;;;9.18;1.73;;;9.60;99.90;;;;;;5004864;28;20022;-61
2023/11/07 03:05:04;;;;;;;3.15;1.58;;;9.60;99.90;;;;;;5003611;28;20044;-61
2023/11/07 03:07:30;;;;;;;3.33;1.70;;;9.60;99.90;;;;;;5006581;28;20136;-61
2023/11/07 03:09:57;;;;;;;2.92;1.73;;;9.60;99.90;;;;;;5000004;28;20030;-61
2023/11/07 03:12:23;;;;;;;6.95;1.98;;;9.60;99.90;;;;;;5008066;28;20095;-61
2023/11/07 03:14:49;;;;;;;4.60;1.38;;;9.60;99.90;;;;;;5008934;28;20535;-62
2023/11/07 03:17:14;;;;;;;8.13;1.63;;;9.60;99.90;;;;;;5009147;28;20417;-61
2023/11/07 03:19:40;;;;;;;3.58;1.45;;;9.50;99.90;;;;;;5009435;28;20018;-61
2023/11/07 03:22:06;;;;;;;4.30;1.60;;;9.50;99.90;;;;;;5009040;28;20387;-61
2023/11/07 03:24:31;;;;;;;10.25;1.85;;;9.50;99.90;;;;;;5008755;28;20026;-61
2023/11/07 03:26:57;;;;;;;3.17;1.80;;;9.50;99.90;;;;;;5009570;28;20109;-61
2023/11/07 03:29:23;;;;;;;3.35;1.33;;;9.60;99.90;;;;;;5009473;28;20026;-61
2023/11/07 03:31:49;;;;;;;4.13;1.77;;;9.60;99.90;;;;;;5009316;28;20045;-61
2023/11/07 03:34:14;;;;;;;8.95;1.90;;;9.60;99.90;;;;;;5008827;28;20105;-61
2023/11/07 03:36:40;;;;;;;4.97;1.67;;;9.50;99.90;;;;;;5009020;28;20164;-61
2023/11/07 03:39:06;;;;;;;8.40;1.80;;;9.50;99.90;;;;;;5009116;28;20021;-61
2023/11/07 03:41:32;;;;;;;10.02;2.10;;;9.50;99.90;;;;;;5009194;28;20018;-61
2023/11/07 03:43:57;;;;;;;3.08;1.65;;;9.50;99.90;;;;;;5008860;28;20431;-61
2023/11/07 03:46:23;;;;;;;7.10;1.60;;;9.40;99.90;;;;;;5008515;28;20061;-61
2023/11/07 03:48:48;;;;;;;4.20;1.77;;;9.50;99.90;;;;;;5009282;28;20032;-61
2023/11/07 03:51:14;;;;;;;5.55;1.55;;;9.50;99.90;;;;;;5008809;28;20025;-61
2023/11/07 03:53:39;;;;;;;3.00;1.75;;;9.50;99.90;;;;;;5004294;28;20027;-61
2023/11/07 03:56:05;;;;;;;5.85;2.17;;;9.40;99.90;;;;;;5000207;28;20119;-61
2023/11/07 03:58:31;;;;;;;6.45;1.90;;;9.40;99.90;;;;;;4998926;28;20434;-61
2023/11/07 04:00:57;;;;;;;5.65;2.30;;;9.40;99.90;;;;;;5008983;28;20076;-61
2023/11/07 04:03:22;;;;;;;3.67;1.92;;;9.40;99.90;;;;;;5008889;28;20025;-60
2023/11/07 04:05:48;;;;;;;4.95;1.98;;;9.40;99.90;;;;;;5004156;28;20030;-61
2023/11/07 04:08:13;;;;;;;2.53;1.60;;;9.40;99.90;;;;;;5006286;28;20052;-60
2023/11/07 04:10:39;;;;;;;5.80;2.38;;;9.40;99.90;;;;;;5004302;28;20084;-60
2023/11/07 04:13:05;;;;;;;6.03;2.78;;;9.40;99.90;;;;;;5004736;28;20562;-60
2023/11/07 04:15:31;;;;;;;13.23;3.03;;;9.40;99.90;;;;;;5008034;28;20033;-61
2023/11/07 04:17:57;;;;;;;4.25;1.80;;;9.50;99.90;;;;;;5008854;28;20026;-61
2023/11/07 04:20:23;;;;;;;7.15;2.25;;;9.50;99.90;;;;;;5008399;28;20484;-61
2023/11/07 04:22:48;;;;;;;6.30;2.53;;;9.50;99.90;;;;;;5008728;28;20030;-61
2023/11/07 04:25:15;;;;;;;7.50;2.38;;;9.50;99.90;;;;;;5003755;28;20275;-61
2023/11/07 04:27:40;;;;;;;4.00;1.83;;;9.50;99.90;;;;;;5008438;28;20113;-61
2023/11/07 04:30:06;;;;;;;6.72;2.45;;;9.50;99.90;;;;;;5008824;28;20097;-61
2023/11/07 04:32:35;;;;;;;3.78;1.95;;;9.50;99.90;;;;;;5008643;28;20454;-61
2023/11/07 04:35:01;;;;;;;3.20;1.73;;;9.50;99.90;;;;;;5008041;28;20367;-61
2023/11/07 04:37:27;;;;;;;11.45;2.50;;;9.40;99.90;;;;;;5008283;28;20480;-61
2023/11/07 04:39:52;;;;;;;12.30;2.65;;;9.40;99.90;;;;;;5008494;28;20148;-60
2023/11/07 04:42:18;;;;;;;9.07;2.33;;;9.40;99.90;;;;;;5008013;28;20119;-60
2023/11/07 04:44:44;;;;;;;2.33;1.70;;;9.30;99.90;;;;;;5007774;28;20045;-61
2023/11/07 04:47:10;;;;;;;5.55;2.05;;;9.30;99.90;;;;;;5008391;28;20032;-60
2023/11/07 04:49:35;;;;;;;4.72;1.73;;;9.30;99.90;;;;;;5008655;28;20096;-61
2023/11/07 04:52:02;;;;;;;5.45;1.77;;;9.30;99.90;;;;;;5008562;28;20121;-61
2023/11/07 04:54:27;;;;;;;3.58;1.75;;;9.30;99.90;;;;;;5007548;28;20696;-61
2023/11/07 04:56:54;;;;;;;4.78;1.95;;;9.20;99.90;;;;;;5008563;28;20083;-61
2023/11/07 04:59:22;;;;;;;7.63;2.30;;;9.20;99.90;;;;;;5009735;28;20093;-61
2023/11/07 05:01:49;;;;;;;8.25;2.75;;;9.20;99.90;;;;;;5012027;28;20053;-61
2023/11/07 05:04:15;;;;;;;4.03;1.80;;;9.20;99.90;;;;;;5012035;28;20384;-61
2023/11/07 05:06:41;;;;;;;6.32;2.20;;;9.20;99.90;;;;;;5012126;28;20448;-61
2023/11/07 05:09:08;;;;;;;3.90;2.00;;;9.20;99.90;;;;;;5011878;28;20045;-60
2023/11/07 05:11:36;;;;;;;5.13;1.88;;;9.10;99.90;;;;;;5012022;28;20105;-61
2023/11/07 05:14:01;;;;;;;4.68;1.98;;;9.10;99.90;;;;;;5011942;28;20033;-60
2023/11/07 05:16:27;;;;;;;10.10;2.08;;;9.10;99.90;;;;;;5011795;28;20037;-61
2023/11/07 05:18:53;;;;;;;8.15;2.08;;;9.10;99.90;;;;;;5011912;28;20041;-61
2023/11/07 05:21:19;;;;;;;3.47;2.00;;;9.10;99.90;;;;;;5012179;28;20026;-60
2023/11/07 05:23:44;;;;;;;9.98;2.95;;;9.00;99.90;;;;;;5012191;28;20034;-61
2023/11/07 05:26:11;;;;;;;4.63;1.70;;;9.00;99.90;;;;;;5012071;28;20395;-61
2023/11/07 05:28:37;;;;;;;7.13;2.47;;;9.00;99.90;;;;;;5012228;28;20033;-60
2023/11/07 05:31:03;;;;;;;7.32;2.30;;;9.00;99.90;;;;;;5011872;28;20022;-61
2023/11/07 05:33:29;;;;;;;5.70;1.90;;;8.90;99.90;;;;;;5012065;28;20104;-60
2023/11/07 05:35:54;;;;;;;7.55;1.95;;;8.90;99.90;;;;;;5011146;28;20160;-60
2023/11/07 05:38:20;;;;;;;4.13;1.80;;;8.90;99.90;;;;;;5008368;28;20049;-60
2023/11/07 05:40:47;;;;;;;13.45;2.33;;;8.80;99.90;;;;;;5006905;28;20019;-61
2023/11/07 05:43:12;;;;;;;4.95;2.20;;;8.80;99.90;;;;;;5008699;28;20410;-60
2023/11/07 05:45:38;;;;;;;6.25;2.33;;;8.80;99.90;;;;;;5010844;28;20045;-60
2023/11/07 05:48:04;;;;;;;4.00;1.58;;;8.80;99.90;;;;;;5011140;28;20407;-60
2023/11/07 05:50:29;;;;;;;7.40;1.70;;;8.80;99.90;;;;;;5010837;28;20034;-60
2023/11/07 05:52:55;;;;;;;3.38;1.63;;;8.80;99.90;;;;;;5010867;28;20034;-60
2023/11/07 05:55:21;;;;;;;7.22;1.85;;;8.80;99.90;;;;;;5010501;28;20034;-61
2023/11/07 05:57:46;;;;;;;7.18;2.10;;;8.80;99.90;;;;;;5011383;28;20025;-61
2023/11/07 06:00:13;;;;;;;5.22;2.25;;;8.80;99.90;;;;;;5011434;28;20033;-61
2023/11/07 06:02:39;;;;;;;4.75;1.85;;;8.80;99.90;;;;;;5010910;28;20029;-61
2023/11/07 06:05:06;;;;;;;4.25;2.50;;;8.80;99.90;;;;;;5009060;28;20022;-61
2023/11/07 06:07:32;;;;;;;2.65;1.70;;;8.80;99.90;;;;;;5006198;28;20030;-61
2023/11/07 06:09:59;;;;;;;5.28;1.52;;;8.80;99.90;;;;;;5004572;28;20037;-61
2023/11/07 06:12:24;;;;;;;4.53;1.80;;;8.80;99.90;;;;;;5011017;28;20030;-61
2023/11/07 06:14:50;;;;;;;6.18;1.92;;;8.80;99.90;;;;;;5009188;28;20030;-60
2023/11/07 06:17:17;;;;;;;5.60;2.30;;;8.70;99.90;;;;;;5007839;28;20026;-58
2023/11/07 06:19:43;;;;;;;12.75;1.90;;;8.70;99.90;;;;;;4998707;28;20015;-59
2023/11/07 06:22:09;;;;;;;3.20;2.03;;;8.80;99.90;;;;;;5007459;28;20014;-58
2023/11/07 06:24:34;;;;;;;3.25;1.27;;;8.80;99.90;;;;;;5010335;28;20518;-58
2023/11/07 06:27:00;;;;;;;5.18;1.60;;;8.80;99.90;;;;;;5010331;28;20022;-58
2023/11/07 06:29:26;;;;;;;10.80;2.50;;;8.80;99.90;;;;;;5010272;28;20049;-58
2023/11/07 06:31:52;;;;;;;2.65;1.40;;;8.90;99.90;;;;;;5010354;28;20612;-58
2023/11/07 06:34:18;;;;;;;5.85;1.80;;;8.90;99.90;;;;;;5009826;28;20056;-58
2023/11/07 06:36:45;;;;;;;6.35;1.75;;;9.00;99.90;;;;;;5010117;28;20018;-58
2023/11/07 06:39:11;;;;;;;3.40;1.83;;;9.00;99.90;;;;;;5010597;28;20092;-58
2023/11/07 06:41:38;;;;;;;4.90;1.98;;;9.10;99.90;;;;;;5010451;28;20056;-58
2023/11/07 06:44:04;;;;;;;6.38;1.58;;;9.10;99.90;;;;;;5009910;28;20049;-59
2023/11/07 06:46:29;;;;;;;6.07;1.88;;;9.20;99.90;;;;;;5009927;28;20513;-58
2023/11/07 06:48:55;;;;;;;5.90;1.95;;;9.20;99.90;;;;;;5005653;28;20590;-58
2023/11/07 06:51:21;;;;;;;3.45;1.90;;;9.30;99.90;;;;;;5008470;28;20038;-58
2023/11/07 06:53:46;;;;;;;4.80;1.55;;;9.30;99.90;;;;;;4995634;28;20034;-58
2023/11/07 06:56:15;;;;;;;5.65;1.80;;;9.30;99.90;;;;;;5002667;28;20037;-58
2023/11/07 06:58:41;;;;;;;5.47;2.25;;;9.30;99.90;;;;;;5009985;28;20017;-61
2023/11/07 07:01:09;;;;;;;4.63;1.83;;;9.40;99.90;;;;;;5010433;28;20084;-61
2023/11/07 07:03:35;;;;;;;7.93;2.08;;;9.40;99.90;;;;;;5009888;28;20088;-61
2023/11/07 07:06:00;;;;;;;3.60;1.67;;;9.50;99.90;;;;;;5009408;28;20022;-61
2023/11/07 07:08:26;;;;;;;8.75;2.17;;;9.50;99.90;;;;;;5008576;28;20064;-60
2023/11/07 07:10:51;;;;;;;7.30;2.15;;;9.50;99.90;;;;;;5009496;28;20026;-61
2023/11/07 07:13:19;;;;;;;6.22;1.77;;;9.60;99.90;;;;;;5009910;28;20032;-61
2023/11/07 07:15:48;;;;;;;11.73;2.13;;;9.60;99.90;;;;;;5004019;28;20061;-61
2023/11/07 07:18:18;;;;;;;5.25;1.60;;;9.70;99.90;;;;;;5007067;28;20021;-61
2023/11/07 07:20:45;;;;;;;7.57;1.63;;;9.70;99.90;;;;;;5009875;28;20379;-62
2023/11/07 07:23:11;;;;;;;4.30;1.95;;;9.80;99.90;;;;;;5009085;28;20036;-61
2023/11/07 07:25:37;;;;;;;4.00;1.48;;;9.80;99.90;;;;;;5009643;28;20433;-61
2023/11/07 07:28:06;;;;;;;5.78;1.65;;;9.80;99.90;;;;;;5009666;28;20273;-62
2023/11/07 07:30:32;;;;;;;7.50;1.77;;;9.80;99.90;;;;;;5004234;28;20030;-62
2023/11/07 07:32:59;;;;;;;4.50;2.03;;;9.80;99.90;;;;;;5003992;28;20029;-62
2023/11/07 07:35:29;;;;;;;3.40;1.50;;;9.80;99.90;;;;;;5009068;28;20033;-62
2023/11/07 07:37:55;;;;;;;4.43;1.67;;;9.80;99.90;;;;;;5009737;28;20041;-62
2023/11/07 07:40:25;;;;;;;4.43;1.88;;;9.80;99.90;;;;;;5009067;28;20022;-61
2023/11/07 07:42:53;;;;;;;2.90;1.60;;;9.70;99.90;;;;;;5009274;28;20351;-62
2023/11/07 07:45:19;;;;;;;6.10;2.33;;;9.70;99.90;;;;;;5008730;28;20530;-62
2023/11/07 07:47:45;;;;;;;4.47;1.92;;;9.70;99.90;;;;;;5009017;28;20072;-61
2023/11/07 07:50:11;;;;;;;5.00;1.90;;;9.80;99.90;;;;;;5008950;28;20452;-62
2023/11/07 07:52:38;;;;;;;3.58;1.95;;;9.80;99.90;;;;;;5008239;28;20096;-61
2023/11/07 07:55:08;;;;;;;3.53;1.63;;;9.80;99.90;;;;;;5003782;28;20117;-61
2023/11/07 07:57:36;;;;;;;5.95;2.88;;;9.80;99.90;;;;;;5009355;28;20021;-61
2023/11/07 08:00:11;;;;;;;5.28;1.98;;;9.80;99.90;;;;;;5008910;28;20326;-62
2023/11/07 08:02:56;;;;;;;5.43;2.30;;;9.80;99.90;;;;;;5009458;28;20026;-61
2023/11/07 08:05:21;;;;;;;3.40;1.60;;;9.80;99.90;;;;;;5008734;28;20114;-62
2023/11/07 08:07:47;;;;;;;4.88;1.75;;;9.80;99.90;;;;;;5009088;28;20115;-61
2023/11/07 08:10:18;;;;;;;3.10;1.83;;;9.90;99.90;;;;;;5008937;28;20215;-62
2023/11/07 08:12:48;;;;;;;3.08;1.77;;;9.90;99.90;;;;;;5009071;28;20097;-62
2023/11/07 08:15:14;;;;;;;;;;;9.90;99.90;;;;;;5008649;28;20034;-61
2023/11/07 08:17:40;;;;;;;8.57;2.22;;;9.90;99.90;;;;;;5008827;28;19924;-62
2023/11/07 08:20:14;;;;;;;7.22;2.15;;;10.00;99.90;;;;;;5004313;28;20034;-62
2023/11/07 08:22:43;;;;;;;5.32;2.13;;;10.00;99.90;;;;;;5001385;28;20077;-61
2023/11/07 08:25:12;;;;;;;5.72;2.05;;;10.10;99.90;;;;;;5006714;28;20112;-62
2023/11/07 08:27:39;;;;;;;5.28;2.15;;;10.10;99.90;;;;;;5008122;28;20033;-61
2023/11/07 08:30:13;;;;;;;6.93;2.20;;;10.10;99.90;;;;;;5003807;28;20133;-62
2023/11/07 08:32:42;;;;;;;10.35;2.38;;;10.20;99.90;;;;;;5000956;28;20026;-61
2023/11/07 08:35:12;;;;;;;5.60;1.92;;;10.20;99.90;;;;;;5006883;28;20029;-62
2023/11/07 08:37:41;;;;;;;2.92;1.80;;;10.20;99.90;;;;;;5000239;28;20076;-61
2023/11/07 08:40:08;;;;;;;6.22;2.30;;;10.30;99.90;;;;;;5008088;28;20026;-61
2023/11/07 08:42:34;;;;;;;9.95;2.53;;;10.30;99.90;;;;;;5004425;28;20030;-61
2023/11/07 08:45:00;;;;;;;5.22;1.83;;;10.40;99.90;;;;;;4988098;28;20096;-61
2023/11/07 08:47:27;;;;;;;5.80;1.95;;;10.40;99.90;;;;;;4988037;28;20030;-61
2023/11/07 08:49:57;;;;;;;7.05;2.05;;;10.50;99.90;;;;;;4988491;28;20083;-61
2023/11/07 08:52:24;;;;;;;4.35;1.95;;;10.60;99.90;;;;;;4988446;28;20034;-61
2023/11/07 08:54:50;;;;;;;3.28;1.90;;;10.60;99.90;;;;;;4991275;28;20030;-60
2023/11/07 08:57:15;;;;;;;8.20;2.08;;;10.70;99.90;;;;;;5006955;28;20036;-60
2023/11/07 08:59:44;;;;;;;6.90;2.33;;;10.70;99.90;;;;;;5008154;28;20104;-60
2023/11/07 09:02:13;;;;;;;4.53;2.20;;;10.80;99.90;;;;;;5008043;28;20479;-60
2023/11/07 09:04:38;;;;;;;4.90;1.98;;;10.80;99.90;;;;;;5022188;28;20468;-60
2023/11/07 09:07:06;;;;;;;4.60;2.17;;;10.90;99.90;;;;;;5008028;28;20049;-61
2023/11/07 09:09:33;;;;;;;5.13;1.80;;;10.90;99.90;;;;;;5007933;28;20456;-60
2023/11/07 09:11:59;;;;;;;3.60;1.95;;;11.00;99.90;;;;;;5008153;28;20022;-60
2023/11/07 09:14:25;;;;;;;4.25;2.10;;;11.10;99.90;;;;;;5007593;28;20045;-61
2023/11/07 09:16:52;;;;;;;7.00;1.80;;;11.10;99.90;;;;;;5007914;28;20052;-60
2023/11/07 09:19:18;;;;;;;4.10;1.73;;;11.10;99.90;;;;;;5007867;28;20010;-60
2023/11/07 09:21:44;;;;;;;4.22;1.58;;;11.20;99.90;;;;;;5008062;28;20022;-61
2023/11/07 09:24:09;;;;;;;7.13;1.58;;;11.30;99.90;;;;;;5007554;28;20364;-61
2023/11/07 09:26:35;;;;;;;4.00;1.45;;;11.40;99.90;;;;;;5007202;28;20086;-60
2023/11/07 09:29:00;;;;;;;4.28;2.00;;;11.40;99.90;;;;;;5003306;28;20523;-60
2023/11/07 09:31:28;;;;;;;2.15;1.27;;;11.50;99.90;;;;;;5006855;28;20048;-60
2023/11/07 09:33:53;;;;;;;4.57;1.90;;;11.60;99.90;;;;;;5001779;28;20113;-60
2023/11/07 09:36:19;;;;;;;6.20;1.58;;;11.70;99.90;;;;;;5005045;28;20204;-60
2023/11/07 09:38:46;;;;;;;7.30;1.83;;;11.90;99.90;;;;;;5003319;28;20026;-60
2023/11/07 09:41:12;;;;;;;3.13;1.20;;;12.10;99.90;;;;;;5002056;28;20049;-60
2023/11/07 09:43:38;;;;;;;2.40;1.48;;;12.40;99.90;;;;;;5005433;28;20021;-60
2023/11/07 09:46:05;;;;;;;4.72;1.50;;;13.20;99.90;;;;;;5009151;28;20033;-60
2023/11/07 09:48:31;;;;;;;3.33;1.17;;;14.40;99.90;;;;;;5011170;28;20105;-60
2023/11/07 09:50:58;;;;;;;4.10;1.17;;;15.80;99.90;;;;;;5006936;28;20156;-60
2023/11/07 09:53:24;;;;;;;5.07;1.10;;;17.20;98.50;;;;;;5010240;28;20638;-60
2023/11/07 09:55:52;;;;;;;4.20;1.48;;;18.20;96.10;;;;;;5010330;28;20037;-61
2023/11/07 09:58:29;;;;;;;2.72;1.08;;;17.60;94.80;;;;;;5010556;28;20026;-61
2023/11/07 10:00:58;;;;;;;3.70;1.20;;;16.90;96.10;;;;;;5010870;28;20537;-60
2023/11/07 10:03:24;;;;;;;1.73;0.98;;;16.80;96.20;;;;;;5010711;28;20029;-60
2023/11/07 10:05:51;;;;;;;6.68;1.30;;;16.70;95.60;;;;;;5009585;28;20033;-61
2023/11/07 10:08:19;;;;;;;2.05;0.98;;;16.10;96.30;;;;;;5010216;28;20368;-61
2023/11/07 10:11:14;;;;;;;2.95;1.23;;;16.40;96.50;;;;;;5010517;28;20046;-60
2023/11/07 10:14:02;;;;;;;5.10;1.33;;;17.50;95.40;;;;;;5011335;28;20045;-60
2023/11/07 10:16:41;;;;;;;2.35;1.00;;;18.80;93.30;;;;;;5010645;28;20041;-61
2023/11/07 10:19:13;;;;;;;2.72;1.00;;;19.80;91.60;;;;;;4993368;28;20050;-62
2023/11/07 10:21:39;;;;;;;3.58;0.93;;;20.60;90.30;;;;;;5003496;28;20017;-61
2023/11/07 10:24:05;;;;;;;3.38;0.70;;;21.30;86.90;;;;;;5002596;28;20605;-61
2023/11/07 10:26:31;;;;;;;4.57;0.95;;;22.20;85.50;;;;;;5001532;28;20113;-61
2023/11/07 10:29:13;;;;;;;1.88;0.93;;;23.20;79.70;;;;;;5002532;28;20030;-61
2023/11/07 10:31:42;;;;;;;1.98;0.93;;;23.20;79.20;;;;;;4994563;28;20033;-62
2023/11/07 10:34:19;;;;;;;2.10;0.80;;;23.60;78.30;;;;;;4999589;28;20432;-62
2023/11/07 10:36:44;;;;;;;2.83;1.00;;;23.80;75.50;;;;;;5000405;28;20495;-61
2023/11/07 10:39:16;;;;;;;2.90;0.90;;;23.20;75.30;;;;;;5002060;28;20041;-61
2023/11/07 10:41:43;;;;;;;2.83;1.10;;;23.10;75.70;;;;;;5003709;28;20099;-61
2023/11/07 10:44:25;;;;;;;1.25;0.60;;;22.70;75.00;;;;;;5009174;28;20491;-61
2023/11/07 10:47:00;;;;;;;2.88;0.80;;;20.90;79.60;;;;;;5004815;28;20440;-61
2023/11/07 10:49:26;;;;;;;1.13;0.90;;;20.60;80.20;;;;;;5004309;28;20030;-61
2023/11/07 10:51:55;;;;;;;2.60;0.90;;;20.70;79.10;;;;;;5005843;28;20053;-61
2023/11/07 10:54:21;;;;;;;1.58;0.70;;;20.70;81.20;;;;;;4999323;28;20062;-61
2023/11/07 10:56:49;;;;;;;2.10;1.02;;;21.60;78.50;;;;;;4996603;28;20288;-61
2023/11/07 10:59:24;;;;;;;2.85;0.80;;;21.50;76.80;;;;;;5000562;28;20479;-61
2023/11/07 11:01:51;;;;;;;2.90;0.90;;;22.10;75.30;;;;;;4999226;28;20066;-61
2023/11/07 11:04:20;;;;;;;1.05;0.60;;;21.20;77.00;;;;;;5000510;28;20029;-61
2023/11/07 11:06:59;;;;;;;2.22;0.80;;;21.70;79.80;;;;;;5002319;28;20100;-61
2023/11/07 11:09:26;;;;;;;4.07;1.10;;;22.00;76.40;;;;;;5003422;28;20030;-61
2023/11/07 11:11:58;;;;;;;1.77;0.80;;;22.70;74.30;;;;;;5000639;28;20463;-61
2023/11/07 11:14:25;;;;;;;1.75;0.77;;;22.50;74.40;;;;;;5002660;28;20051;-61
2023/11/07 11:16:54;;;;;;;1.48;0.75;;;22.30;75.50;;;;;;5001906;28;20609;-61
2023/11/07 11:19:24;;;;;;;1.65;1.13;;;22.50;76.00;;;;;;5003687;28;20030;-61
2023/11/07 11:22:10;;;;;;;1.80;1.10;;;21.80;75.60;;;;;;5000813;28;20117;-61
2023/11/07 11:25:09;;;;;;;0.95;0.65;;;21.30;77.10;;;;;;4999636;28;20014;-61
2023/11/07 11:27:47;;;;;;;3.67;1.35;;;20.50;77.80;;;;;;5002391;28;20033;-62
2023/11/07 11:30:13;;;;;;;2.22;1.30;;;19.90;79.60;;;;;;5009044;28;20189;-61
2023/11/07 11:32:43;;;;;;;3.22;1.10;;;19.50;81.80;;;;;;5007236;28;20532;-61
2023/11/07 11:35:12;;;;;;;3.30;1.00;;;19.30;81.60;;;;;;5002505;28;20036;-61
2023/11/07 11:38:12;;;;;;;2.30;1.35;;;18.50;83.50;;;;;;5003270;28;20087;-61
2023/11/07 11:40:59;;;;;;;1.90;1.10;;;17.40;87.10;;;;;;5007327;28;20025;-61
2023/11/07 11:43:33;;;;;;;3.75;1.00;;;16.80;89.20;;;;;;5008833;28;20165;-61
2023/11/07 11:46:18;;;;;;;1.80;1.00;;;17.00;89.30;;;;;;5007177;28;20038;-61
2023/11/07 11:48:50;;;;;;;0.85;0.65;;;17.60;89.50;;;;;;5008797;28;20429;-61
2023/11/07 11:51:33;;;;;;;2.50;1.00;;;18.20;87.80;;;;;;5008641;28;20483;-61
2023/11/07 11:53:59;;;;;;;2.65;1.00;;;18.20;87.00;;;;;;5007511;28;20475;-61
2023/11/07 11:56:25;;;;;;;1.35;0.82;;;18.00;85.90;;;;;;4999550;28;20323;-61
2023/11/07 11:59:10;;;;;;;6.18;1.10;;;17.20;87.80;;;;;;5008564;28;20436;-61
2023/11/07 12:01:57;;;;;;;1.27;0.90;;;16.80;90.40;;;;;;5001005;28;20022;-62
2023/11/07 12:04:48;;;;;;;1.92;0.93;;;17.00;89.80;;;;;;5008212;28;20501;-61
2023/11/07 12:07:13;;;;;;;2.00;0.93;;;17.70;88.00;;;;;;5002514;28;20022;-62
2023/11/07 12:09:44;;;;;;;1.25;0.70;;;18.00;87.00;;;;;;5006370;28;20037;-62
2023/11/07 12:12:13;;;;;;;5.78;1.33;;;18.20;86.70;;;;;;5008364;28;20036;-62
2023/11/07 12:14:59;;;;;;;1.17;0.93;;;18.70;86.70;;;;;;5006319;28;20022;-62
2023/11/07 12:17:28;;;;;;;2.75;0.98;;;19.00;85.60;;;;;;5006839;28;20115;-61
2023/11/07 12:20:09;;;;;;;6.35;1.00;;;19.10;85.50;;;;;;5008716;28;20499;-61
2023/11/07 12:22:34;;;;;;;;;;;19.10;86.50;;;;;;5009063;28;20068;-61
2023/11/07 12:25:11;;;;;;;1.80;0.80;;;19.00;84.20;;;;;;5006623;28;20454;-61
2023/11/07 12:27:37;;;;;;;3.20;1.30;;;18.70;84.60;;;;;;5006569;28;20784;-62
2023/11/07 12:30:10;;;;;;;2.30;0.80;;;17.90;87.30;;;;;;5008279;28;20038;-61
2023/11/07 12:32:36;;;;;;;4.72;1.17;;;17.00;89.10;;;;;;5008574;28;20030;-61
2023/11/07 12:35:02;;;;;;;1.77;1.10;;;16.20;90.80;;;;;;5001475;28;20142;-61
2023/11/07 12:37:27;;;;;;;2.30;1.10;;;15.60;91.60;;;;;;5003264;28;20076;-61
2023/11/07 12:39:53;;;;;;;4.53;1.33;;;15.30;92.10;;;;;;4998378;28;20110;-60
2023/11/07 12:42:19;;;;;;;3.42;1.33;;;14.90;92.70;;;;;;5000208;28;20379;-61
2023/11/07 12:44:50;;;;;;;1.75;1.10;;;14.70;92.80;;;;;;5001961;28;20042;-62
2023/11/07 12:47:15;;;;;;;5.32;1.25;;;14.20;94.10;;;;;;4998455;28;20121;-62
2023/11/07 12:49:43;;;;;;;3.72;1.25;;;13.90;94.70;;;;;;5002686;28;20041;-61
2023/11/07 12:52:12;;;;;;;2.40;1.10;;;13.90;95.20;;;;;;4999173;28;20055;-61
2023/11/07 12:54:38;;;;;;;1.63;1.00;;;13.80;95.50;;;;;;5000842;28;20107;-62
2023/11/07 12:57:04;;;;;;;1.15;1.00;;;13.80;95.70;;;;;;5000363;28;20026;-61